Date,TemperatureHighF,TemperatureAvgF,TemperatureLowF,DewpointHighF,DewpointAvgF,DewpointLowF,HumidityHigh,HumidityAvg,HumidityLow,PressureMaxIn,PressureMinIn,WindSpeedMaxMPH,WindSpeedAvgMPH,GustSpeedMaxMPH,PrecipitationSumIn
2013-5-1,61.6,43.7,32.8,-99.9,-99.9,-99.9,0,0,100,29.20,29.05,17,-20,0,0.00
2013-5-2,57.8,43.6,28.1,-99.9,-99.9,-99.9,0,0,100,29.20,28.95,16,-28,0,0.00
2013-5-3,51.5,45.9,37.7,-99.9,-99.9,-99.9,0,0,100,28.95,28.63,20,-15,0,0.00
2013-5-4,57.4,44.0,31.5,-99.9,-99.9,-99.9,0,0,100,28.84,28.66,19,-56,0,0.00
2013-5-5,63.0,51.1,41.3,-99.9,-99.9,-99.9,0,0,100,28.99,28.84,22,-38,0,0.00
2013-5-6,65.0,50.1,40.2,-99.9,-99.9,-99.9,0,0,100,29.00,28.95,19,-45,0,0.00
2013-5-7,77.6,56.8,35.5,-99.9,-99.9,-99.9,0,0,100,29.01,28.83,16,-69,0,0.00
2013-5-8,61.2,50.2,42.2,-99.9,-99.9,-99.9,0,0,100,28.83,28.46,27,-69,0,0.00
2013-5-9,57.9,46.1,39.1,-99.9,-99.9,-99.9,0,0,100,28.50,28.29,22,-51,0,0.00
2013-5-10,63.8,47.5,36.6,-99.9,-99.9,-99.9,0,0,100,28.59,28.32,15,-48,0,0.00
2013-5-11,55.2,43.0,33.5,-99.9,-99.9,-99.9,0,0,100,28.68,28.45,15,-40,0,0.00
2013-5-12,57.3,44.5,35.8,-99.9,-99.9,-99.9,0,0,100,28.73,28.54,18,-30,0,0.00
2013-5-13,53.6,40.2,33.5,-99.9,-99.9,-99.9,0,0,100,28.57,28.40,22,-19,0,0.00
2013-5-14,58.1,42.5,32.7,-99.9,-99.9,-99.9,0,0,100,28.40,28.33,21,-20,0,0.00
2013-5-15,57.3,40.6,30.2,-99.9,-99.9,-99.9,0,0,100,28.38,28.26,18,-43,0,0.00
2013-5-16,66.4,46.4,31.5,-99.9,-99.9,-99.9,0,0,100,28.65,28.35,15,-17,0,0.00
2013-5-17,67.4,50.3,34.9,-99.9,-99.9,-99.9,0,0,100,28.81,28.65,16,-20,0,0.00
2013-5-18,50.1,46.3,43.5,-99.9,-99.9,-99.9,0,0,100,28.79,28.67,22,-52,0,0.00
2013-5-19,64.1,50.9,44.4,-99.9,-99.9,-99.9,0,0,100,28.94,28.76,13,-52,0,0.00
2013-5-20,74.9,59.1,50.2,-99.9,-99.9,-99.9,0,0,100,28.98,28.88,17,-29,0,0.00
2013-5-21,68.8,54.5,40.1,-99.9,-99.9,-99.9,0,0,100,29.03,28.97,12,-22,0,0.00
2013-5-22,63.5,49.4,35.3,-99.9,-99.9,-99.9,0,0,100,29.03,28.94,26,-30,0,0.00
2013-5-23,53.2,41.7,32.5,-99.9,-99.9,-99.9,0,0,100,28.95,28.83,23,-45,0,0.00
2013-5-24,56.2,43.9,33.3,-99.9,-99.9,-99.9,0,0,100,29.15,28.83,24,-2,0,0.00
2013-5-25,72.8,53.0,30.6,-99.9,-99.9,-99.9,0,0,100,29.15,29.06,12,-48,0,0.00
2013-5-26,66.2,51.0,36.8,-99.9,-99.9,-99.9,0,0,100,29.07,28.74,13,-30,0,0.00
2013-5-27,52.7,46.9,41.1,-99.9,-99.9,-99.9,0,0,100,28.74,28.42,18,-16,0,0.00
2013-5-28,60.2,49.3,41.1,-99.9,-99.9,-99.9,0,0,100,28.73,28.49,17,-33,0,0.00
2013-5-29,61.0,51.3,39.7,-99.9,-99.9,-99.9,0,0,100,28.87,28.73,16,-24,0,0.00
2013-5-30,69.5,57.3,46.7,-99.9,-99.9,-99.9,0,0,100,29.03,28.85,17,-37,0,0.00
2013-5-31,75.7,56.4,44.2,-99.9,-99.9,-99.9,0,0,100,29.11,29.02,0,-60,0,0.00